createdAt,value
2022-10-13T00:01:46.486Z,45.25
2022-10-13T00:04:16.047Z,44.25
2022-10-13T00:06:45.531Z,42.75
2022-10-13T00:09:15.886Z,41.75
2022-10-13T00:11:46.455Z,42.25
2022-10-13T00:14:16.226Z,43.25
2022-10-13T00:16:45.543Z,45.25
2022-10-13T00:19:15.292Z,46.50
2022-10-13T00:21:45.015Z,44.50
2022-10-13T00:24:14.399Z,43.50
2022-10-13T00:26:43.679Z,43.75
2022-10-13T00:29:19.078Z,42.50
2022-10-13T00:31:48.550Z,43.25
2022-10-13T00:34:17.946Z,41.00
2022-10-13T00:36:47.408Z,41.75
2022-10-13T00:39:16.838Z,40.00
2022-10-13T00:41:46.328Z,40.75
2022-10-13T00:44:33.580Z,40.50
2022-10-13T00:47:02.968Z,40.00
2022-10-13T00:49:32.940Z,41.25
2022-10-13T00:52:02.411Z,45.00
2022-10-13T00:54:31.881Z,49.75
2022-10-13T00:57:01.523Z,52.25
2022-10-13T00:59:31.178Z,59.50
2022-10-13T01:02:01.387Z,53.00
2022-10-13T01:04:33.953Z,51.75
2022-10-13T01:07:05.346Z,51.75
2022-10-13T01:09:40.807Z,50.75
2022-10-13T01:12:28.246Z,47.50
2022-10-13T01:15:10.336Z,46.50
2022-10-13T01:17:46.287Z,48.75
2022-10-13T01:20:16.222Z,46.75
2022-10-13T01:22:56.431Z,48.50
2022-10-13T01:25:43.908Z,45.25
2022-10-13T01:28:24.336Z,47.75
2022-10-13T01:30:57.395Z,43.50
2022-10-13T01:33:26.674Z,47.50
2022-10-13T01:35:58.980Z,44.50
2022-10-13T01:38:43.736Z,47.00
2022-10-13T01:41:36.764Z,44.00
2022-10-13T01:44:24.557Z,47.75
2022-10-13T01:46:56.908Z,43.75
2022-10-13T01:49:30.354Z,47.00
2022-10-13T01:52:03.589Z,46.25
2022-10-13T01:54:34.212Z,44.50
2022-10-13T01:57:04.125Z,48.00
2022-10-13T01:59:36.439Z,44.50
2022-10-13T02:02:06.112Z,45.75
2022-10-13T02:04:41.446Z,47.50
2022-10-13T02:07:21.569Z,43.25
2022-10-13T02:10:00.237Z,44.75
2022-10-13T02:12:34.034Z,45.75
2022-10-13T02:15:04.945Z,45.25
2022-10-13T02:17:34.525Z,44.75
2022-10-13T02:20:07.523Z,45.00
2022-10-13T02:22:40.637Z,44.00
2022-10-13T02:25:10.707Z,42.25
2022-10-13T02:30:07.953Z,40.75
2022-10-13T02:32:37.445Z,43.75
2022-10-13T02:35:07.356Z,41.25
2022-10-13T02:37:36.677Z,42.50
2022-10-13T02:40:06.413Z,39.25
2022-10-13T02:42:36.052Z,43.25
2022-10-13T02:45:05.917Z,42.00
2022-10-13T02:47:35.341Z,39.25
2022-10-13T02:50:06.523Z,41.25
2022-10-13T02:52:36.273Z,37.50
2022-10-13T02:55:06.084Z,42.50
2022-10-13T02:57:35.814Z,39.25
2022-10-13T03:00:06.916Z,38.75
2022-10-13T03:02:36.261Z,37.75
2022-10-13T03:05:05.862Z,41.75
2022-10-13T03:07:35.228Z,40.00
2022-10-13T03:10:05.156Z,37.25
2022-10-13T03:12:34.618Z,37.50
2022-10-13T03:15:05.033Z,35.25
2022-10-13T03:17:34.731Z,38.25
2022-10-13T03:20:04.196Z,38.50
2022-10-13T03:22:34.115Z,34.50
2022-10-13T03:25:03.515Z,36.25
2022-10-13T03:27:32.978Z,34.25
2022-10-13T03:30:02.306Z,35.00
2022-10-13T03:32:34.404Z,34.25
2022-10-13T03:35:03.719Z,36.50
2022-10-13T03:37:33.045Z,32.50
2022-10-13T03:40:02.339Z,36.50
2022-10-13T03:42:31.705Z,36.00
2022-10-13T03:47:56.014Z,37.75
2022-10-13T03:50:27.518Z,36.25
2022-10-13T03:52:57.105Z,38.00
2022-10-13T03:55:26.582Z,39.00
2022-10-13T03:57:55.931Z,36.75
2022-10-13T04:00:25.237Z,35.00
2022-10-13T04:02:54.932Z,37.50
2022-10-13T04:05:24.276Z,35.00
2022-10-13T04:07:53.600Z,34.00
2022-10-13T04:10:30.260Z,32.75
2022-10-13T04:12:59.559Z,34.75
2022-10-13T04:15:29.280Z,32.75
2022-10-13T04:17:59.107Z,33.50
2022-10-13T04:20:28.595Z,34.00
2022-10-13T04:22:57.947Z,34.00
2022-10-13T04:25:27.374Z,33.00
2022-10-13T04:27:56.751Z,32.75
2022-10-13T04:30:26.302Z,33.50
2022-10-13T04:32:55.628Z,36.25
2022-10-13T04:35:24.970Z,36.75
2022-10-13T04:37:54.336Z,33.25
2022-10-13T04:40:23.826Z,38.50
2022-10-13T04:42:53.180Z,33.00
2022-10-13T04:45:22.747Z,32.25
2022-10-13T04:47:52.947Z,34.75
2022-10-13T04:50:23.913Z,34.50
2022-10-13T04:53:01.095Z,33.50
2022-10-13T04:55:31.045Z,32.75
2022-10-13T04:58:01.444Z,36.00
2022-10-13T05:00:30.730Z,32.00
2022-10-13T05:03:00.094Z,33.75
2022-10-13T05:05:29.541Z,34.75
2022-10-13T05:07:58.800Z,33.25
2022-10-13T05:10:31.318Z,34.00
2022-10-13T05:13:04.390Z,32.75
2022-10-13T05:15:33.630Z,36.50
2022-10-13T05:18:03.031Z,31.75
2022-10-13T05:20:32.812Z,33.25
2022-10-13T05:23:02.346Z,33.50
2022-10-13T05:25:33.783Z,32.25
2022-10-13T05:28:04.439Z,32.00
2022-10-13T05:30:34.123Z,31.00
2022-10-13T05:33:04.102Z,34.50
2022-10-13T05:35:33.470Z,34.50
2022-10-13T05:38:02.838Z,32.50
2022-10-13T05:40:32.212Z,34.25
2022-10-13T05:43:02.129Z,33.50
2022-10-13T05:45:34.163Z,32.75
2022-10-13T05:48:03.977Z,32.75
2022-10-13T05:50:33.813Z,34.25
2022-10-13T05:53:03.148Z,32.00
2022-10-13T05:55:32.528Z,30.75
2022-10-13T05:58:03.426Z,32.75
2022-10-13T06:00:32.761Z,32.00
2022-10-13T06:03:08.476Z,32.50
2022-10-13T06:05:38.017Z,31.00
2022-10-13T06:08:07.291Z,34.75
2022-10-13T06:10:37.168Z,32.25
2022-10-13T06:13:06.635Z,33.00
2022-10-13T06:15:35.999Z,31.50
2022-10-13T06:18:09.048Z,32.75
2022-10-13T06:20:39.125Z,31.00
2022-10-13T06:23:08.347Z,32.75
2022-10-13T06:25:38.128Z,31.50
2022-10-13T06:28:07.446Z,31.75
2022-10-13T06:30:36.806Z,30.50
2022-10-13T06:33:08.451Z,29.25
2022-10-13T06:35:38.682Z,32.00
2022-10-13T06:38:11.225Z,29.50
2022-10-13T06:40:43.570Z,31.75
2022-10-13T06:43:13.312Z,31.50
2022-10-13T06:45:45.246Z,32.25
2022-10-13T06:48:14.825Z,28.75
2022-10-13T06:50:44.092Z,29.75
2022-10-13T06:53:13.489Z,29.75
2022-10-13T06:55:47.043Z,28.25
2022-10-13T06:58:18.578Z,30.00
2022-10-13T07:00:48.061Z,29.50
2022-10-13T07:03:18.162Z,31.50
2022-10-13T07:05:48.643Z,32.50
2022-10-13T07:08:18.102Z,29.25
2022-10-13T07:10:47.508Z,32.75
2022-10-13T07:13:16.914Z,29.50
2022-10-13T07:15:46.401Z,29.75
2022-10-13T07:18:15.756Z,30.25
2022-10-13T07:20:45.079Z,30.25
2022-10-13T07:23:14.567Z,31.50
2022-10-13T07:25:43.991Z,27.75
2022-10-13T07:28:13.427Z,29.50
2022-10-13T07:30:42.831Z,31.25
2022-10-13T07:33:12.685Z,32.00
2022-10-13T07:35:42.221Z,30.25
2022-10-13T07:38:11.788Z,32.50
2022-10-13T07:40:43.421Z,31.75
2022-10-13T07:43:12.756Z,33.00
2022-10-13T07:45:42.181Z,31.50
2022-10-13T07:48:11.487Z,33.25
2022-10-13T07:50:40.881Z,34.75
2022-10-13T07:53:10.228Z,34.25
2022-10-13T07:55:39.734Z,36.00
2022-10-13T07:58:09.164Z,34.50
2022-10-13T08:00:38.675Z,32.75
2022-10-13T08:03:08.440Z,32.50
2022-10-13T08:05:39.467Z,36.00
2022-10-13T08:08:10.042Z,33.75
2022-10-13T08:10:39.476Z,38.75
2022-10-13T08:13:08.901Z,37.00
2022-10-13T08:15:41.479Z,33.00
2022-10-13T08:18:14.455Z,36.50
2022-10-13T08:20:44.936Z,38.75
2022-10-13T08:23:15.145Z,34.50
2022-10-13T08:25:50.632Z,34.75
2022-10-13T08:28:27.826Z,38.00
2022-10-13T08:31:00.427Z,36.00
2022-10-13T08:33:29.905Z,36.25
2022-10-13T08:35:59.312Z,36.50
2022-10-13T08:38:28.729Z,35.50
2022-10-13T08:40:58.172Z,38.00
2022-10-13T08:43:28.070Z,34.75
2022-10-13T08:46:02.482Z,35.25
2022-10-13T08:48:37.448Z,33.50
2022-10-13T08:51:08.253Z,36.00
2022-10-13T08:53:41.273Z,36.25
2022-10-13T08:56:16.556Z,36.50
2022-10-13T08:58:49.248Z,35.75
2022-10-13T09:01:20.598Z,36.00
2022-10-13T09:04:09.534Z,32.25
2022-10-13T09:06:54.882Z,38.00
2022-10-13T09:09:24.325Z,43.50
2022-10-13T09:11:54.067Z,43.00
2022-10-13T09:14:26.129Z,42.00
2022-10-13T09:16:57.463Z,42.00
2022-10-13T09:19:31.457Z,44.75
2022-10-13T09:22:21.081Z,44.50
2022-10-13T09:25:03.487Z,43.25
2022-10-13T09:27:42.769Z,43.75
2022-10-13T09:30:27.372Z,44.00
2022-10-13T09:33:16.582Z,43.00
2022-10-13T09:35:48.262Z,45.50
2022-10-13T09:38:19.638Z,43.75
2022-10-13T09:41:13.023Z,43.25
2022-10-13T09:43:59.949Z,43.00
2022-10-13T09:46:34.675Z,44.75
2022-10-13T09:49:09.026Z,45.50
2022-10-13T09:51:40.274Z,46.75
2022-10-13T09:54:35.111Z,44.25
2022-10-13T09:57:14.125Z,44.50
2022-10-13T09:59:49.143Z,44.75
2022-10-13T10:02:23.769Z,43.50
2022-10-13T10:04:59.409Z,44.50
2022-10-13T10:07:32.058Z,45.25
2022-10-13T10:10:14.423Z,44.50
2022-10-13T10:12:45.597Z,47.25
2022-10-13T10:15:22.348Z,53.75
2022-10-13T10:18:01.600Z,48.25
2022-10-13T10:20:49.977Z,48.25
2022-10-13T10:23:31.074Z,49.25
2022-10-13T10:26:06.744Z,46.75
2022-10-13T10:28:36.134Z,48.00
2022-10-13T10:31:16.934Z,46.50
2022-10-13T10:34:01.970Z,47.75
2022-10-13T10:36:51.761Z,50.50
2022-10-13T10:39:21.605Z,48.25
2022-10-13T10:42:09.211Z,46.00
2022-10-13T10:44:43.298Z,46.50
2022-10-13T10:47:34.433Z,44.75
2022-10-13T10:50:06.999Z,46.00
2022-10-13T10:52:59.820Z,45.75
2022-10-13T10:55:35.935Z,45.25
2022-10-13T10:58:14.396Z,46.75
2022-10-13T11:00:50.889Z,47.50
2022-10-13T11:03:20.757Z,46.50
2022-10-13T11:06:16.111Z,46.75
2022-10-13T11:08:48.409Z,47.00
2022-10-13T11:11:37.843Z,46.00
2022-10-13T11:14:31.374Z,45.50
2022-10-13T11:17:01.589Z,46.00
2022-10-13T11:19:31.011Z,55.75
2022-10-13T11:22:00.411Z,52.00
2022-10-13T11:24:44.064Z,51.00
2022-10-13T11:27:16.417Z,48.75
2022-10-13T11:29:50.347Z,49.25
2022-10-13T11:32:28.906Z,48.50
2022-10-13T11:35:02.350Z,49.25
2022-10-13T11:38:05.658Z,51.75
2022-10-13T11:40:36.434Z,51.00
2022-10-13T11:43:24.726Z,50.00
2022-10-13T11:46:00.232Z,48.00
2022-10-13T11:48:49.787Z,49.50
2022-10-13T11:51:27.383Z,46.75
2022-10-13T11:53:58.320Z,50.00
2022-10-13T11:56:39.535Z,48.50
2022-10-13T11:59:21.606Z,49.25
2022-10-13T12:02:01.414Z,49.50
2022-10-13T12:04:31.331Z,47.25
2022-10-13T12:07:05.376Z,47.75
2022-10-13T12:09:35.734Z,47.75
2022-10-13T12:12:08.859Z,50.25
2022-10-13T12:14:42.218Z,52.00
2022-10-13T12:17:23.918Z,50.50
2022-10-13T12:19:57.364Z,51.75
2022-10-13T12:22:28.726Z,49.75
2022-10-13T12:25:08.616Z,53.75
2022-10-13T12:27:47.272Z,51.25
2022-10-13T12:30:24.167Z,51.75
2022-10-13T12:32:55.492Z,51.25
2022-10-13T12:35:26.776Z,53.50
2022-10-13T12:37:57.601Z,52.25
2022-10-13T12:40:28.261Z,52.75
2022-10-13T12:42:58.139Z,51.00
2022-10-13T12:45:30.327Z,52.50
2022-10-13T12:48:00.184Z,49.00
2022-10-13T12:50:32.663Z,52.00
2022-10-13T12:53:08.068Z,51.75
2022-10-13T12:55:39.583Z,53.00
2022-10-13T12:58:19.136Z,49.75
2022-10-13T13:01:10.534Z,49.50
2022-10-13T13:03:41.130Z,47.75
2022-10-13T13:06:16.799Z,46.25
2022-10-13T13:08:46.617Z,47.50
2022-10-13T13:11:24.660Z,44.25
2022-10-13T13:14:14.332Z,45.00
2022-10-13T13:16:44.377Z,46.50
2022-10-13T13:19:24.594Z,48.25
2022-10-13T13:21:54.760Z,45.50
2022-10-13T13:24:36.115Z,42.50
2022-10-13T13:27:23.636Z,45.75
2022-10-13T13:29:54.942Z,45.75
2022-10-13T13:32:25.870Z,46.75
2022-10-13T13:34:56.103Z,46.25
2022-10-13T13:37:29.296Z,46.25
2022-10-13T13:40:00.257Z,45.75
2022-10-13T13:42:31.238Z,43.25
2022-10-13T13:45:01.924Z,44.25
2022-10-13T13:47:31.780Z,42.75
2022-10-13T13:50:01.860Z,45.75
2022-10-13T13:52:31.339Z,47.75
2022-10-13T13:55:00.941Z,45.00
2022-10-13T13:57:30.996Z,43.00
2022-10-13T14:00:00.946Z,44.75
2022-10-13T14:02:41.444Z,45.75
2022-10-13T14:05:12.815Z,44.00
2022-10-13T14:07:42.815Z,42.75
2022-10-13T14:10:12.840Z,44.50
2022-10-13T14:12:42.711Z,45.50
2022-10-13T14:15:13.029Z,48.50
2022-10-13T14:17:43.314Z,45.00
2022-10-13T14:20:13.365Z,46.00
2022-10-13T14:22:45.307Z,46.50
2022-10-13T14:25:16.316Z,45.00
2022-10-13T14:27:47.446Z,46.00
2022-10-13T14:30:17.680Z,46.75
2022-10-13T14:32:47.554Z,46.50
2022-10-13T14:35:17.476Z,46.25
2022-10-13T14:37:48.482Z,47.25
2022-10-13T14:40:18.318Z,47.00
2022-10-13T14:42:48.629Z,45.75
2022-10-13T14:45:20.516Z,47.00
2022-10-13T14:47:50.489Z,48.00
2022-10-13T14:50:20.482Z,47.50
2022-10-13T14:52:55.248Z,49.00
2022-10-13T14:55:25.815Z,48.00
2022-10-13T14:57:55.621Z,48.25
2022-10-13T15:00:25.673Z,48.25
2022-10-13T15:02:55.428Z,49.75
2022-10-13T15:05:28.087Z,47.50
2022-10-13T15:07:57.862Z,47.50
2022-10-13T15:10:27.786Z,46.75
2022-10-13T15:12:58.088Z,48.00
2022-10-13T15:15:27.917Z,47.50
2022-10-13T15:17:58.056Z,49.00
2022-10-13T15:20:28.056Z,50.00
2022-10-13T15:22:57.903Z,50.25
2022-10-13T15:25:27.846Z,50.00
2022-10-13T15:27:57.591Z,47.50
2022-10-13T15:30:27.618Z,47.75
2022-10-13T15:32:57.357Z,49.50
2022-10-13T15:35:27.129Z,51.50
2022-10-13T15:37:57.082Z,49.75
2022-10-13T15:40:26.861Z,50.25
2022-10-13T15:42:57.570Z,49.50
2022-10-13T15:45:27.388Z,49.50
2022-10-13T15:47:58.982Z,49.75
2022-10-13T15:50:28.573Z,49.75
2022-10-13T15:52:58.362Z,49.50
2022-10-13T15:55:28.258Z,51.00
2022-10-13T15:57:57.927Z,52.00
2022-10-13T16:00:27.536Z,52.00
2022-10-13T16:02:57.056Z,50.00
2022-10-13T16:05:26.756Z,51.00
2022-10-13T16:07:56.319Z,50.25
2022-10-13T16:10:26.217Z,48.75
2022-10-13T16:12:55.868Z,49.25
2022-10-13T16:15:25.663Z,51.75
2022-10-13T16:17:55.272Z,52.25
2022-10-13T16:20:24.621Z,51.50
2022-10-13T16:22:54.959Z,49.00
2022-10-13T16:25:24.850Z,50.00
2022-10-13T16:27:57.075Z,50.00
2022-10-13T16:30:27.004Z,50.25
2022-10-13T16:32:56.848Z,50.50
2022-10-13T16:35:26.759Z,50.50
2022-10-13T16:37:56.188Z,51.25
2022-10-13T16:40:25.568Z,49.75
2022-10-13T16:42:55.013Z,50.00
2022-10-13T16:45:41.202Z,50.25
2022-10-13T16:48:14.641Z,52.75
2022-10-13T16:50:44.273Z,50.00
2022-10-13T16:53:13.746Z,50.00
2022-10-13T16:55:43.359Z,49.50
2022-10-13T16:58:14.588Z,51.50
2022-10-13T17:00:44.951Z,50.00
2022-10-13T17:03:14.774Z,51.00
2022-10-13T17:05:44.198Z,50.50
2022-10-13T17:08:13.713Z,49.75
2022-10-13T17:10:43.133Z,52.50
2022-10-13T17:13:12.546Z,52.75
2022-10-13T17:15:41.955Z,58.00
2022-10-13T17:18:11.355Z,52.00
2022-10-13T17:20:42.519Z,48.75
2022-10-13T17:23:12.411Z,53.00
2022-10-13T17:25:42.196Z,53.50
2022-10-13T17:28:12.539Z,51.75
2022-10-13T17:30:42.155Z,53.00
2022-10-13T17:33:13.678Z,51.75
2022-10-13T17:35:46.395Z,54.50
2022-10-13T17:38:16.409Z,51.00
2022-10-13T17:40:46.085Z,54.00
2022-10-13T17:43:15.525Z,52.00
2022-10-13T17:45:45.056Z,50.75
2022-10-13T17:48:14.992Z,51.50
2022-10-13T17:50:46.147Z,51.75
2022-10-13T17:53:15.602Z,54.25
2022-10-13T17:55:45.560Z,51.50
2022-10-13T17:58:16.160Z,52.75
2022-10-13T18:01:12.817Z,54.75
2022-10-13T18:03:35.052Z,55.75
2022-10-13T18:06:04.775Z,53.00
2022-10-13T18:08:34.685Z,54.75
2022-10-13T18:11:11.515Z,52.50
2022-10-13T18:13:41.482Z,54.50
2022-10-13T18:16:18.223Z,52.00
2022-10-13T18:18:48.835Z,54.50
2022-10-13T18:21:19.742Z,52.50
2022-10-13T18:23:54.978Z,53.25
2022-10-13T18:26:25.054Z,53.50
2022-10-13T18:28:54.862Z,54.50
2022-10-13T18:31:31.986Z,55.00
2022-10-13T18:34:02.699Z,52.00
2022-10-13T18:36:36.826Z,55.50
2022-10-13T18:39:13.097Z,54.25
2022-10-13T18:41:44.772Z,52.75
2022-10-13T18:44:14.266Z,52.50
2022-10-13T18:46:44.234Z,54.75
2022-10-13T18:49:15.161Z,54.50
2022-10-13T18:51:45.768Z,52.50
2022-10-13T18:54:15.117Z,56.25
2022-10-13T18:56:44.533Z,56.25
2022-10-13T18:59:13.990Z,56.75
2022-10-13T19:01:44.219Z,53.75
2022-10-13T19:04:16.032Z,58.50
2022-10-13T19:06:45.946Z,52.25
2022-10-13T19:09:18.643Z,54.00
2022-10-13T19:11:48.066Z,55.00
2022-10-13T19:14:18.588Z,54.00
2022-10-13T19:16:48.076Z,54.25
2022-10-13T19:19:17.768Z,53.75
2022-10-13T19:21:47.144Z,55.50
2022-10-13T19:24:16.592Z,52.50
2022-10-13T19:26:46.095Z,53.25
2022-10-13T19:29:17.438Z,58.25
2022-10-13T19:31:47.982Z,56.50
2022-10-13T19:34:17.459Z,54.50
2022-10-13T19:36:48.363Z,54.50
2022-10-13T19:39:20.442Z,53.50
2022-10-13T19:41:50.341Z,55.25
2022-10-13T19:44:20.550Z,58.00
2022-10-13T19:46:50.573Z,50.50
2022-10-13T19:49:22.059Z,52.00
2022-10-13T19:51:53.989Z,61.00
2022-10-13T19:54:24.127Z,57.25
2022-10-13T19:56:53.731Z,53.50
2022-10-13T19:59:23.215Z,58.25
2022-10-13T20:01:52.679Z,59.75
2022-10-13T20:04:22.234Z,56.75
2022-10-13T20:06:52.198Z,53.50
2022-10-13T20:09:22.348Z,55.00
2022-10-13T20:11:52.903Z,55.75
2022-10-13T20:14:22.762Z,52.25
2022-10-13T20:16:52.481Z,57.50
2022-10-13T20:19:21.926Z,55.00
2022-10-13T20:21:54.316Z,54.25
2022-10-13T20:24:24.692Z,52.50
2022-10-13T20:26:55.225Z,54.75
2022-10-13T20:29:24.910Z,56.50
2022-10-13T20:31:54.330Z,54.75
2022-10-13T20:34:23.725Z,59.75
2022-10-13T20:36:53.173Z,56.25
2022-10-13T20:39:22.618Z,54.25
2022-10-13T20:41:52.056Z,53.75
2022-10-13T20:44:21.718Z,50.25
2022-10-13T20:46:51.190Z,56.50
2022-10-13T20:49:23.726Z,52.75
2022-10-13T20:51:53.117Z,55.25
2022-10-13T20:54:22.662Z,59.50
2022-10-13T20:56:52.033Z,60.50
2022-10-13T20:59:21.445Z,57.50
2022-10-13T21:01:51.024Z,57.50
2022-10-13T21:04:20.517Z,55.50
2022-10-13T21:06:50.185Z,56.75
2022-10-13T21:09:19.633Z,54.00
2022-10-13T21:11:49.212Z,56.00
2022-10-13T21:14:18.620Z,62.00
2022-10-13T21:16:48.036Z,57.50
2022-10-13T21:19:17.685Z,53.75
2022-10-13T21:21:47.897Z,59.50
2022-10-13T21:24:17.944Z,54.75
2022-10-13T21:26:47.523Z,58.25
2022-10-13T21:29:17.027Z,55.25
2022-10-13T21:31:46.465Z,60.25
2022-10-13T21:34:15.925Z,60.75
2022-10-13T21:36:46.732Z,59.75
2022-10-13T21:39:16.342Z,67.25
2022-10-13T21:41:46.004Z,64.00
2022-10-13T21:44:16.182Z,61.50
2022-10-13T21:46:45.627Z,58.50
2022-10-13T21:49:15.172Z,60.50
2022-10-13T21:51:44.651Z,60.50
2022-10-13T21:54:14.874Z,60.75
2022-10-13T21:56:44.327Z,61.00
2022-10-13T21:59:14.435Z,61.50
2022-10-13T22:01:43.969Z,67.00
2022-10-13T22:04:16.780Z,63.25
2022-10-13T22:06:47.076Z,63.75
2022-10-13T22:09:16.766Z,62.50
2022-10-13T22:11:46.234Z,59.25
2022-10-13T22:14:15.784Z,61.50
2022-10-13T22:16:49.641Z,58.75
2022-10-13T22:19:20.975Z,59.00
2022-10-13T22:21:52.375Z,62.25
2022-10-13T22:24:23.297Z,58.00
2022-10-13T22:26:52.970Z,55.75
2022-10-13T22:29:23.142Z,59.25
2022-10-13T22:31:54.248Z,53.50
2022-10-13T22:34:23.834Z,53.00
2022-10-13T22:36:53.436Z,55.50
2022-10-13T22:39:24.734Z,57.25
2022-10-13T22:41:55.373Z,57.50
2022-10-13T22:44:24.782Z,52.50
2022-10-13T22:46:54.221Z,55.25
2022-10-13T22:49:23.655Z,56.00
2022-10-13T22:51:53.077Z,51.25
2022-10-13T22:54:22.526Z,54.50
2022-10-13T22:56:52.405Z,54.25
2022-10-13T22:59:21.923Z,55.75
2022-10-13T23:01:51.488Z,55.50
2022-10-13T23:04:20.858Z,51.25
2022-10-13T23:06:50.264Z,54.75
2022-10-13T23:09:19.643Z,51.75
2022-10-13T23:11:49.131Z,49.75
2022-10-13T23:14:20.715Z,50.00
2022-10-13T23:16:50.262Z,50.75
2022-10-13T23:19:20.876Z,56.50
2022-10-13T23:21:50.274Z,55.50
2022-10-13T23:24:19.747Z,52.50
2022-10-13T23:26:49.222Z,52.50
2022-10-13T23:29:18.648Z,51.00
2022-10-13T23:31:48.114Z,53.75
2022-10-13T23:34:17.572Z,49.00
2022-10-13T23:36:46.968Z,50.25
2022-10-13T23:39:16.488Z,68.25
2022-10-13T23:41:45.922Z,64.25
2022-10-13T23:44:15.393Z,67.00
2022-10-13T23:46:45.625Z,60.25
2022-10-13T23:49:16.047Z,67.50
2022-10-13T23:51:45.977Z,62.50
2022-10-13T23:54:15.442Z,58.00
2022-10-13T23:56:44.894Z,62.50
2022-10-13T23:59:14.351Z,58.50
